Terminal Aerodrome Forecast
Issued by NWS Cleveland, OH

Home | Current Version | Previous Version | Text Only | Print | Product List | Glossary Off
Versions: 1 2 3 4 5 6 7 8 9 10 11 12 13 14 15 16 17 18 19

000
FTUS41 KCLE 250800 AAA
TAFTOL
TAF AMD
KTOL 250854Z 2509/2606 25010KT P6SM SCT040
      TEMPO 2509/2512 BKN040
     FM251400 34005KT P6SM BKN250
     FM260300 05006KT P6SM OVC080=

USA.gov is the U.S. government's official web portal to all federal, state and local government web resources and services.